createdAt,value
2022-11-03T00:00:08.074Z,122.6
2022-11-03T00:05:08.944Z,120
2022-11-03T00:10:06.410Z,88.5
2022-11-03T00:15:07.081Z,90.6
2022-11-03T00:20:07.153Z,123.1
2022-11-03T00:25:07.059Z,105.8
2022-11-03T00:30:06.841Z,99.2
2022-11-03T00:35:06.838Z,93.6
2022-11-03T00:40:06.820Z,82.1
2022-11-03T00:45:06.707Z,80.8
2022-11-03T00:50:06.670Z,82.6
2022-11-03T00:55:06.474Z,93.6
2022-11-03T01:00:07.403Z,99.3
2022-11-03T01:05:06.926Z,124.2
2022-11-03T01:10:07.035Z,108.4
2022-11-03T01:15:06.604Z,113.9
2022-11-03T01:20:06.763Z,87.9
2022-11-03T01:25:06.829Z,100.8
2022-11-03T01:30:06.847Z,124.3
2022-11-03T01:35:06.821Z,115.1
2022-11-03T01:40:07.091Z,103.2
2022-11-03T01:45:07.083Z,95.2
2022-11-03T01:50:06.955Z,98.7
2022-11-03T01:55:06.895Z,107.7
2022-11-03T02:00:06.523Z,88.3
2022-11-03T02:05:06.872Z,98
2022-11-03T02:10:07.026Z,89.6
2022-11-03T02:15:07.016Z,108.4
2022-11-03T02:20:06.994Z,80.2
2022-11-03T02:25:07.093Z,95.7
2022-11-03T02:30:06.778Z,96
2022-11-03T02:35:06.757Z,89
2022-11-03T02:40:06.355Z,68
2022-11-03T02:45:06.414Z,85.6
2022-11-03T02:50:06.395Z,79.9
2022-11-03T02:55:06.504Z,77.5
2022-11-03T03:00:06.581Z,105.4
2022-11-03T03:05:07.171Z,99.5
2022-11-03T03:10:06.608Z,76.2
2022-11-03T03:15:07.169Z,104.9
2022-11-03T03:20:07.228Z,104.2
2022-11-03T03:25:07.122Z,129
2022-11-03T03:30:06.707Z,121.6
2022-11-03T03:35:06.259Z,116.1
2022-11-03T03:40:06.359Z,102.4
2022-11-03T03:45:06.873Z,75
2022-11-03T03:50:06.931Z,75.5
2022-11-03T03:55:06.988Z,75.1
2022-11-03T04:00:06.373Z,74.8
2022-11-03T04:05:06.839Z,88.3
2022-11-03T04:10:07.005Z,86.4
2022-11-03T04:15:06.911Z,77.9
2022-11-03T04:20:06.898Z,74.2
2022-11-03T04:25:06.819Z,97.3
2022-11-03T04:30:06.841Z,81.8
2022-11-03T04:35:06.829Z,95
2022-11-03T04:40:06.848Z,138.7
2022-11-03T04:45:06.836Z,77.3
2022-11-03T04:50:06.749Z,93
2022-11-03T04:55:06.802Z,81.7
2022-11-03T05:00:06.934Z,76.6
2022-11-03T05:05:06.333Z,123.1
2022-11-03T05:10:06.643Z,80.1
2022-11-03T05:15:06.639Z,91.1
2022-11-03T05:20:06.750Z,92.2
2022-11-03T05:25:06.987Z,66.5
2022-11-03T05:30:07.001Z,72.3
2022-11-03T05:35:06.945Z,91.3
2022-11-03T05:40:07.062Z,75.6
2022-11-03T05:45:06.993Z,68.7
2022-11-03T05:50:07.008Z,77.9
2022-11-03T05:55:06.929Z,89.3
2022-11-03T06:00:07.164Z,109.1
2022-11-03T06:05:06.766Z,82.8
2022-11-03T06:10:06.904Z,100.6
2022-11-03T06:15:06.660Z,113.3
2022-11-03T06:20:06.675Z,95.8
2022-11-03T06:25:07.051Z,86.5
2022-11-03T06:30:06.385Z,106.4
2022-11-03T06:35:07.178Z,136.1
2022-11-03T06:40:07.148Z,134.4
2022-11-03T06:45:07.086Z,120.4
2022-11-03T06:50:06.976Z,148.8
2022-11-03T06:55:07.009Z,155.1
2022-11-03T07:00:07.055Z,153.4
2022-11-03T07:05:06.410Z,154.4
2022-11-03T07:10:06.465Z,164.4
2022-11-03T07:15:06.436Z,130.4
2022-11-03T07:20:06.823Z,117.9
2022-11-03T07:25:06.871Z,95.1
2022-11-03T07:30:06.891Z,94.4
2022-11-03T07:35:06.327Z,110.3
2022-11-03T07:40:07.081Z,106.7
2022-11-03T07:45:06.965Z,96.4
2022-11-03T07:50:06.975Z,86.5
2022-11-03T07:55:06.875Z,118.2
2022-11-03T08:00:07.197Z,100.8
2022-11-03T08:05:06.850Z,106.6
2022-11-03T08:10:06.910Z,107.2
2022-11-03T08:15:06.960Z,96.4
2022-11-03T08:20:06.919Z,92.9
2022-11-03T08:25:06.827Z,129.2
2022-11-03T08:30:06.923Z,102.3
2022-11-03T08:35:06.802Z,110
2022-11-03T08:40:06.864Z,111.8
2022-11-03T08:45:06.867Z,116.4
2022-11-03T08:50:06.886Z,105.3
2022-11-03T08:55:06.963Z,106.9
2022-11-03T09:00:07.060Z,121
2022-11-03T09:05:07.240Z,118.2
2022-11-03T09:10:06.422Z,107.8
2022-11-03T09:15:06.653Z,107
2022-11-03T09:20:06.673Z,120.4
2022-11-03T09:25:06.712Z,114.1
2022-11-03T09:30:06.699Z,109
2022-11-03T09:35:06.771Z,118.7
2022-11-03T09:40:06.883Z,119.9
2022-11-03T09:45:06.930Z,115.5
2022-11-03T09:50:06.927Z,119
2022-11-03T09:55:06.907Z,110.2
2022-11-03T10:00:07.135Z,122.1
2022-11-03T10:05:06.664Z,111.5
2022-11-03T10:10:06.767Z,111.4
2022-11-03T10:15:06.820Z,130.6
2022-11-03T10:20:06.903Z,102.7
2022-11-03T10:25:06.737Z,119.7
2022-11-03T10:30:06.318Z,109
2022-11-03T10:35:06.233Z,123.5
2022-11-03T10:40:06.291Z,103.3
2022-11-03T10:45:06.373Z,100.5
2022-11-03T10:50:06.478Z,109.9
2022-11-03T10:55:06.465Z,114
2022-11-03T11:00:06.422Z,96.7
2022-11-03T11:05:06.935Z,103.7
2022-11-03T11:10:07.098Z,104.8
2022-11-03T11:15:07.161Z,128.6
2022-11-03T11:20:06.831Z,96.1
2022-11-03T11:25:06.863Z,114.6
2022-11-03T11:30:06.298Z,131.3
2022-11-03T11:35:06.483Z,116.4
2022-11-03T11:40:06.443Z,101.2
2022-11-03T11:45:06.746Z,113.1
2022-11-03T11:50:06.931Z,96.8
2022-11-03T11:55:07.078Z,98.7
2022-11-03T12:00:06.388Z,103.2
2022-11-03T12:05:07.032Z,91.6
2022-11-03T12:10:07.149Z,104.4
2022-11-03T12:15:07.046Z,99.8
2022-11-03T12:20:06.833Z,103.8
2022-11-03T12:25:06.665Z,82.7
2022-11-03T12:30:06.885Z,112.9
2022-11-03T12:35:06.500Z,90.5
2022-11-03T12:40:06.608Z,98.5
2022-11-03T12:45:06.584Z,86.3
2022-11-03T12:50:06.664Z,86.4
2022-11-03T12:55:06.641Z,124.6
2022-11-03T13:00:06.833Z,86.3
2022-11-03T13:05:06.468Z,71.6
2022-11-03T13:10:06.534Z,86.8
2022-11-03T13:20:07.166Z,67.6
2022-11-03T13:25:06.800Z,93.7
2022-11-03T13:30:06.874Z,77.2
2022-11-03T13:35:06.818Z,89.2
2022-11-03T13:40:06.770Z,88.1
2022-11-03T13:45:07.181Z,101.6
2022-11-03T13:50:07.108Z,111.3
2022-11-03T14:00:06.546Z,107.2
2022-11-03T14:05:06.966Z,113.5
2022-11-03T14:10:07.073Z,106.3
2022-11-03T14:15:06.997Z,108.2
2022-11-03T14:20:07.066Z,93.7
2022-11-03T14:25:06.881Z,149.2
2022-11-03T14:30:06.911Z,114.9
2022-11-03T14:35:06.769Z,130.9
2022-11-03T14:40:06.878Z,106.3
2022-11-03T14:45:06.807Z,122.8
2022-11-03T14:50:06.782Z,98.4
2022-11-03T14:55:07.001Z,113.8
2022-11-03T15:00:07.044Z,106.2
2022-11-03T15:05:06.760Z,109.8
2022-11-03T15:10:06.729Z,141.2
2022-11-03T15:15:06.836Z,138
2022-11-03T15:20:06.876Z,113.3
2022-11-03T15:25:06.702Z,99.2
2022-11-03T15:30:06.781Z,118.4
2022-11-03T15:35:06.801Z,142.4
2022-11-03T15:40:06.778Z,132.2
2022-11-03T15:45:06.605Z,156.3
2022-11-03T15:50:06.696Z,128
2022-11-03T15:55:06.596Z,160.7
2022-11-03T16:00:06.646Z,193.6
2022-11-03T16:05:07.161Z,197.4
2022-11-03T16:10:07.125Z,194.6
2022-11-03T16:15:06.968Z,195.1
2022-11-03T16:20:06.994Z,150.4
2022-11-03T16:25:07.058Z,149.3
2022-11-03T16:30:07.016Z,198.2
2022-11-03T16:35:07.053Z,176.9
2022-11-03T16:40:07.051Z,177.2
2022-11-03T16:45:06.994Z,221.7
2022-11-03T16:50:06.432Z,176.2
2022-11-03T16:55:06.246Z,198.1
2022-11-03T17:00:07.211Z,191.7
2022-11-03T17:05:06.938Z,189.9
2022-11-03T17:10:07.036Z,226.5
2022-11-03T17:15:07.025Z,230.1
2022-11-03T17:20:07.018Z,209.7
2022-11-03T17:25:06.798Z,202.8
2022-11-03T17:30:06.864Z,216.3
2022-11-03T17:35:06.950Z,193.7
2022-11-03T17:40:06.822Z,158.8
2022-11-03T17:45:06.613Z,141.1
2022-11-03T17:50:06.610Z,161.2
2022-11-03T17:55:06.511Z,160
2022-11-03T18:00:06.489Z,144
2022-11-03T18:05:07.036Z,144.7
2022-11-03T18:10:07.061Z,184.9
2022-11-03T18:15:06.975Z,208
2022-11-03T18:20:07.034Z,164.9
2022-11-03T18:25:06.957Z,145.7
2022-11-03T18:30:06.899Z,151.7
2022-11-03T18:35:06.317Z,163.6
2022-11-03T18:40:07.230Z,183.6
2022-11-03T18:45:06.880Z,192.3
2022-11-03T18:50:06.793Z,146.5
2022-11-03T18:55:06.661Z,126.3
2022-11-03T19:00:07.166Z,98.5
2022-11-03T19:05:06.824Z,104.1
2022-11-03T19:10:06.877Z,91.2
2022-11-03T19:15:06.797Z,124.4
2022-11-03T19:20:06.695Z,161.1
2022-11-03T19:25:06.619Z,125.7
2022-11-03T19:30:06.565Z,155.9
2022-11-03T19:35:06.644Z,130.6
2022-11-03T19:40:06.726Z,138.3
2022-11-03T19:45:06.724Z,159.1
2022-11-03T19:50:06.596Z,129.6
2022-11-03T19:55:06.633Z,126.5
2022-11-03T20:00:07.380Z,119.9
2022-11-03T20:05:06.919Z,104.8
2022-11-03T20:10:06.842Z,123.7
2022-11-03T20:15:06.639Z,149.6
2022-11-03T20:20:06.615Z,139.2
2022-11-03T20:25:06.843Z,133.8
2022-11-03T20:30:06.876Z,118.9
2022-11-03T20:35:06.904Z,111
2022-11-03T20:40:06.739Z,132.1
2022-11-03T20:45:06.569Z,125.1
2022-11-03T20:50:06.601Z,109.5
2022-11-03T20:55:06.482Z,102.9
2022-11-03T21:00:06.526Z,112.4
2022-11-03T21:05:07.027Z,113.5
2022-11-03T21:10:06.908Z,98.2
2022-11-03T21:15:06.928Z,108.3
2022-11-03T21:20:06.941Z,115.3
2022-11-03T21:25:07.010Z,115.3
2022-11-03T21:30:07.023Z,110.5
2022-11-03T21:35:06.865Z,123.2
2022-11-03T21:40:06.774Z,127.9
2022-11-03T21:45:07.036Z,111.6
2022-11-03T21:50:06.861Z,136
2022-11-03T21:55:06.703Z,134.5
2022-11-03T22:00:06.735Z,170.3
2022-11-03T22:05:07.095Z,124.4
2022-11-03T22:10:06.999Z,116.5
2022-11-03T22:15:06.235Z,138.3
2022-11-03T22:20:07.095Z,153.1
2022-11-03T22:25:07.029Z,154.9
2022-11-03T22:30:06.891Z,154.2
2022-11-03T22:35:06.926Z,170.3
2022-11-03T22:40:06.893Z,136.4
2022-11-03T22:45:06.802Z,148
2022-11-03T22:50:06.735Z,135.7
2022-11-03T22:55:06.751Z,152.7
2022-11-03T23:00:06.900Z,154.9
2022-11-03T23:05:06.389Z,167.1
2022-11-03T23:10:06.433Z,161.7
2022-11-03T23:15:06.385Z,152.9
2022-11-03T23:20:06.347Z,151.5
2022-11-03T23:25:06.492Z,157
2022-11-03T23:30:06.467Z,186
2022-11-03T23:35:06.246Z,212
2022-11-03T23:40:06.682Z,159.9
2022-11-03T23:45:06.662Z,160.5
2022-11-03T23:50:06.734Z,138.4
2022-11-03T23:55:07.069Z,117.9
